Observation data for Amherst on 02/11/2018      Previous  Date  Next       Current Mesonet Observations  Soil Data  Daily Summary Page  Observations in Plain Language
KAMH 110600Z 03014KT M08/M12 A30 RMK A01 T10811123  RH  071%=      5-min Rain = 0
KAMH 110605Z 02014KT M08/M12 A30 RMK A01 T10821124  RH  072%=      5-min Rain = 0
KAMH 110610Z 02012KT M08/M12 A30 RMK A01 T10831124  RH  072%=      5-min Rain = 0
KAMH 110615Z 02013G18KT M08/M12 A30 RMK A01 T10831124  RH  072%=      5-min Rain = 0
KAMH 110620Z 02012KT M08/M12 A30 RMK A01 T10841124  RH  072%=      5-min Rain = 0
KAMH 110625Z 02010G16KT M08/M12 A30 RMK A01 T10841124  RH  072%=      5-min Rain = 0
KAMH 110630Z 02012G18KT M09/M13 A30 RMK A01 T10851125  RH  072%=      5-min Rain = 0
KAMH 110635Z 02013KT M09/M13 A30 RMK A01 T10861125  RH  073%=      5-min Rain = 0
KAMH 110640Z 02011KT M09/M13 A30 RMK A01 T10871125  RH  073%=      5-min Rain = 0
KAMH 110645Z 02012KT M09/M13 A30 RMK A01 T10871126  RH  073%=      5-min Rain = 0
KAMH 110650Z 02011G16KT M09/M13 A30 RMK A01 T10881126  RH  073%=      5-min Rain = 0
KAMH 110655Z 01011KT M09/M13 A30 RMK A01 T10881126  RH  073%=      5-min Rain = 0
KAMH 110700Z 01012KT M09/M13 A30 RMK A01 T10881126  RH  073%=      5-min Rain = 0
KAMH 110705Z 01012KT M09/M13 A30 RMK A01 T10891126  RH  074%=      5-min Rain = 0
KAMH 110710Z 01010KT M09/M13 A3001 RMK A01 T10891127  RH  074%=      5-min Rain = 0
KAMH 110715Z 01011KT M09/M13 A3001 RMK A01 T10901127  RH  074%=      5-min Rain = 0
KAMH 110720Z 01010KT M09/M13 A3001 RMK A01 T10901128  RH  073%=      5-min Rain = 0
KAMH 110725Z 01010KT M09/M13 A3001 RMK A01 T10901128  RH  073%=      5-min Rain = 0
KAMH 110730Z 00011KT M09/M13 A3001 RMK A01 T10901129  RH  073%=      5-min Rain = 0
KAMH 110735Z 36012KT M09/M13 A3001 RMK A01 T10901130  RH  072%=      5-min Rain = 0
KAMH 110740Z 00013KT M09/M13 A3001 RMK A01 T10901131  RH  072%=      5-min Rain = 0
KAMH 110745Z 36012KT M09/M13 A3002 RMK A01 T10901131  RH  072%=      5-min Rain = 0
KAMH 110750Z 36013KT M09/M13 A3002 RMK A01 T10911132  RH  072%=      5-min Rain = 0
KAMH 110755Z 36014KT M09/M13 A3002 RMK A01 T10911132  RH  072%=      5-min Rain = 0
KAMH 110800Z 00013KT M09/M13 A3002 RMK A01 T10921132  RH  072%=      5-min Rain = 0
KAMH 110805Z 36013KT M09/M13 A3002 RMK A01 T10921132  RH  072%=      5-min Rain = 0
KAMH 110810Z 36012KT M09/M13 A3003 RMK A01 T10931133  RH  072%=      5-min Rain = 0
KAMH 110815Z 35012KT M09/M13 A3003 RMK A01 T10931132  RH  073%=      5-min Rain = 0
KAMH 110820Z 35012G17KT M09/M13 A3004 RMK A01 T10931132  RH  072%=      5-min Rain = 0
KAMH 110825Z 35012KT M09/M13 A3004 RMK A01 T10931133  RH  072%=      5-min Rain = 0
KAMH 110830Z 35011KT M09/M13 A3004 RMK A01 T10941134  RH  072%=      5-min Rain = 0
KAMH 110835Z 35011KT M09/M13 A3004 RMK A01 T10941133  RH  072%=      5-min Rain = 0
KAMH 110840Z 35013KT M09/M13 A3004 RMK A01 T10941133  RH  073%=      5-min Rain = 0
KAMH 110845Z 36013KT M09/M13 A3003 RMK A01 T10931133  RH  073%=      5-min Rain = 0
KAMH 110850Z 36012KT M09/M13 A3003 RMK A01 T10941133  RH  073%=      5-min Rain = 0
KAMH 110855Z 36011KT M09/M13 A3003 RMK A01 T10941133  RH  073%=      5-min Rain = 0
KAMH 110900Z 36010KT M09/M13 A3003 RMK A01 T10941133  RH  073%=      5-min Rain = 0
KAMH 110905Z 36010KT M10/M13 A3003 RMK A01 T10951134  RH  073%=      5-min Rain = 0
KAMH 110910Z 36009KT M10/M13 A3003 RMK A01 T10951134  RH  073%=      5-min Rain = 0
KAMH 110915Z 36009KT M10/M13 A3003 RMK A01 T10961134  RH  073%=      5-min Rain = 0
KAMH 110920Z 00009KT M10/M13 A3003 RMK A01 T10961134  RH  073%=      5-min Rain = 0
KAMH 110925Z 36010KT M10/M13 A3003 RMK A01 T10961134  RH  073%=      5-min Rain = 0
KAMH 110930Z 00010KT M10/M13 A3003 RMK A01 T10951133  RH  073%=      5-min Rain = 0
KAMH 110935Z 00010KT M10/M13 A3003 RMK A01 T10951133  RH  073%=      5-min Rain = 0
KAMH 110940Z 00009KT M09/M13 A3003 RMK A01 T10941133  RH  073%=      5-min Rain = 0
KAMH 110945Z 36010KT M09/M13 A3004 RMK A01 T10941132  RH  073%=      5-min Rain = 0
KAMH 110950Z 36010KT M09/M13 A3004 RMK A01 T10931133  RH  073%=      5-min Rain = 0
KAMH 110955Z 36010KT M09/M13 A3004 RMK A01 T10931132  RH  073%=      5-min Rain = 0
KAMH 111000Z 36010KT M09/M13 A3004 RMK A01 T10931132  RH  072%=      5-min Rain = 0
KAMH 111005Z 36009KT M09/M13 A3004 RMK A01 T10921132  RH  072%=      5-min Rain = 0
KAMH 111010Z 00009KT M09/M13 A3004 RMK A01 T10911132  RH  072%=      5-min Rain = 0
KAMH 111015Z 36009KT M09/M13 A3005 RMK A01 T10901131  RH  072%=      5-min Rain = 0
KAMH 111020Z 00008KT M09/M13 A3005 RMK A01 T10901131  RH  071%=      5-min Rain = 0
KAMH 111025Z 36008KT M09/M13 A3005 RMK A01 T10891131  RH  071%=      5-min Rain = 0
KAMH 111030Z 36009KT M09/M13 A3005 RMK A01 T10881130  RH  071%=      5-min Rain = 0
KAMH 111035Z 36009KT M09/M13 A3005 RMK A01 T10871130  RH  071%=      5-min Rain = 0
KAMH 111040Z 36010KT M09/M13 A3005 RMK A01 T10861130  RH  070%=      5-min Rain = 0
KAMH 111045Z 36010KT M09/M13 A3006 RMK A01 T10851130  RH  069%=      5-min Rain = 0
KAMH 111050Z 35009KT M08/M13 A3006 RMK A01 T10841129  RH  069%=      5-min Rain = 0
KAMH 111055Z 35010KT M08/M13 A3006 RMK A01 T10831129  RH  069%=      5-min Rain = 0
KAMH 111100Z 35009KT M08/M13 A3006 RMK A01 T10821129  RH  069%=      5-min Rain = 0
KAMH 111105Z 36010KT M08/M13 A3006 RMK A01 T10821129  RH  068%=      5-min Rain = 0
KAMH 111110Z 36010KT M08/M13 A3006 RMK A01 T10811129  RH  068%=      5-min Rain = 0
KAMH 111115Z 36010KT M08/M13 A3007 RMK A01 T10801129  RH  067%=      5-min Rain = 0
KAMH 111120Z 36012KT M08/M13 A3007 RMK A01 T10791129  RH  067%=      5-min Rain = 0
KAMH 111125Z 36011G16KT M08/M13 A3007 RMK A01 T10791129  RH  066%=      5-min Rain = 0
KAMH 111130Z 36013KT M08/M13 A3007 RMK A01 T10781129  RH  066%=      5-min Rain = 0
KAMH 111135Z 35011KT M08/M13 A3008 RMK A01 T10771129  RH  066%=      5-min Rain = 0
KAMH 111140Z 36012KT M08/M13 A3008 RMK A01 T10771129  RH  066%=      5-min Rain = 0
KAMH 111145Z 00012KT M08/M13 A3008 RMK A01 T10771129  RH  066%=      5-min Rain = 0
KAMH 111150Z 35012KT M08/M13 A3008 RMK A01 T10771129  RH  066%=      5-min Rain = 0
KAMH 111155Z 35012KT M08/M13 A3009 RMK A01 T10771128  RH  066%=      5-min Rain = 0
KAMH 111200Z 35012KT M08/M13 A3009 RMK A01 T10771127  RH  066%=      5-min Rain = 0
KAMH 111205Z 35011KT M08/M13 A3009 RMK A01 T10761127  RH  066%=      5-min Rain = 0
KAMH 111210Z 35010KT M08/M13 A3009 RMK A01 T10761127  RH  066%=      5-min Rain = 0
KAMH 111215Z 35010KT M08/M13 A301 RMK A01 T10761127  RH  066%=      5-min Rain = 0
KAMH 111220Z 35009KT M08/M13 A301 RMK A01 T10771128  RH  066%=      5-min Rain = 0
KAMH 111225Z 34007KT M08/M13 A301 RMK A01 T10771128  RH  066%=      5-min Rain = 0
KAMH 111230Z 35009KT M08/M13 A301 RMK A01 T10781127  RH  067%=      5-min Rain = 0
KAMH 111235Z 35009KT M08/M13 A301 RMK A01 T10781127  RH  067%=      5-min Rain = 0
KAMH 111240Z 35011KT M08/M13 A301 RMK A01 T10771126  RH  068%=      5-min Rain = 0
KAMH 111245Z 35010KT M08/M13 A3011 RMK A01 T10771125  RH  068%=      5-min Rain = 0
KAMH 111250Z 35010KT M08/M13 A3011 RMK A01 T10771126  RH  068%=      5-min Rain = 0
KAMH 111255Z 36010KT M08/M13 A3011 RMK A01 T10771126  RH  068%=      5-min Rain = 0
KAMH 111300Z 35009KT M08/M13 A3011 RMK A01 T10771126  RH  068%=      5-min Rain = 0
KAMH 111305Z 35010KT M08/M13 A3012 RMK A01 T10771125  RH  068%=      5-min Rain = 0
KAMH 111310Z 35010KT M08/M13 A3012 RMK A01 T10771125  RH  068%=      5-min Rain = 0
KAMH 111315Z 34010KT M08/M13 A3013 RMK A01 T10771125  RH  068%=      5-min Rain = 0
KAMH 111320Z 34009KT M08/M13 A3013 RMK A01 T10771126  RH  068%=      5-min Rain = 0
KAMH 111325Z 34009KT M08/M13 A3014 RMK A01 T10771126  RH  067%=      5-min Rain = 0
KAMH 111330Z 34009KT M08/M13 A3014 RMK A01 T10771126  RH  067%=      5-min Rain = 0
KAMH 111335Z 33009KT M08/M13 A3014 RMK A01 T10771125  RH  068%=      5-min Rain = 0
KAMH 111340Z 33009KT M08/M13 A3015 RMK A01 T10761125  RH  068%=      5-min Rain = 0
KAMH 111345Z 32008KT M08/M13 A3015 RMK A01 T10761125  RH  068%=      5-min Rain = 0
KAMH 111350Z 32008KT M08/M13 A3015 RMK A01 T10761125  RH  068%=      5-min Rain = 0
KAMH 111355Z 32008KT M08/M12 A3015 RMK A01 T10761124  RH  068%=      5-min Rain = 0
KAMH 111400Z 32009KT M08/M12 A3015 RMK A01 T10751124  RH  067%=      5-min Rain = 0
KAMH 111405Z 32008KT M07/M12 A3015 RMK A01 T10741124  RH  067%=      5-min Rain = 0
KAMH 111410Z 31008KT M07/M12 A3016 RMK A01 T10741124  RH  067%=      5-min Rain = 0
KAMH 111415Z 31008KT M08/M13 A3016 RMK A01 T10751125  RH  067%=      5-min Rain = 0
KAMH 111420Z 31009KT M07/M12 A3016 RMK A01 T10741124  RH  067%=      5-min Rain = 0
KAMH 111425Z 31008KT M07/M12 A3016 RMK A01 T10741124  RH  067%=      5-min Rain = 0
KAMH 111430Z 31008KT M07/M12 A3017 RMK A01 T10721122  RH  067%=      5-min Rain = 0
KAMH 111435Z 31008KT M07/M12 A3017 RMK A01 T10711122  RH  067%=      5-min Rain = 0
KAMH 111440Z 31007KT M07/M12 A3017 RMK A01 T10711121  RH  067%=      5-min Rain = 0
KAMH 111445Z 31008KT M07/M12 A3018 RMK A01 T10691120  RH  066%=      5-min Rain = 0
KAMH 111450Z 31009KT M07/M12 A3018 RMK A01 T10681120  RH  066%=      5-min Rain = 0
KAMH 111455Z 31009KT M07/M12 A3018 RMK A01 T10671119  RH  066%=      5-min Rain = 0
KAMH 111500Z 31009KT M07/M12 A3019 RMK A01 T10661119  RH  066%=      5-min Rain = 0
KAMH 111505Z 31009KT M07/M12 A3019 RMK A01 T10651118  RH  065%=      5-min Rain = 0
KAMH 111510Z 31008KT M06/M12 A3018 RMK A01 T10641118  RH  065%=      5-min Rain = 0
KAMH 111515Z 31007KT M06/M12 A3018 RMK A01 T10611116  RH  065%=      5-min Rain = 0
KAMH 111520Z 30009KT M06/M12 A3018 RMK A01 T10601115  RH  064%=      5-min Rain = 0
KAMH 111525Z 30009KT M06/M12 A3018 RMK A01 T10581115  RH  064%=      5-min Rain = 0
KAMH 111530Z 31008KT M06/M11 A3018 RMK A01 T10571113  RH  064%=      5-min Rain = 0
KAMH 111535Z 31009KT M06/M11 A3019 RMK A01 T10551113  RH  064%=      5-min Rain = 0
KAMH 111540Z 31009KT M06/M11 A3019 RMK A01 T10551112  RH  064%=      5-min Rain = 0
KAMH 111545Z 32009KT M05/M11 A3019 RMK A01 T10541111  RH  064%=      5-min Rain = 0
KAMH 111550Z 32008KT M05/M11 A3019 RMK A01 T10531110  RH  064%=      5-min Rain = 0
KAMH 111555Z 32008KT M05/M11 A3019 RMK A01 T10491108  RH  063%=      5-min Rain = 0
KAMH 111600Z 32009KT M05/M11 A3019 RMK A01 T10481108  RH  063%=      5-min Rain = 0
KAMH 111605Z 33009KT M05/M11 A3019 RMK A01 T10481107  RH  063%=      5-min Rain = 0
KAMH 111610Z 33009KT M05/M11 A302 RMK A01 T10461106  RH  062%=      5-min Rain = 0
KAMH 111615Z 33009KT M04/M11 A302 RMK A01 T10441105  RH  062%=      5-min Rain = 0
KAMH 111620Z 33010KT M04/M10 A302 RMK A01 T10421103  RH  062%=      5-min Rain = 0
KAMH 111625Z 34009KT M04/M10 A302 RMK A01 T10371101  RH  061%=      5-min Rain = 0
KAMH 111630Z 34008KT M03/M10 A302 RMK A01 T10331099  RH  060%=      5-min Rain = 0
KAMH 111635Z 34007KT M03/M10 A302 RMK A01 T10331100  RH  059%=      5-min Rain = 0
KAMH 111640Z 33007KT M03/M10 A302 RMK A01 T10311099  RH  059%=      5-min Rain = 0
KAMH 111645Z 34007KT M03/M10 A302 RMK A01 T10271097  RH  058%=      5-min Rain = 0
KAMH 111650Z 34006G11KT M02/M09 A302 RMK A01 T10221094  RH  057%=      5-min Rain = 0
KAMH 111655Z 33007KT M02/M10 A302 RMK A01 T10201096  RH  056%=      5-min Rain = 0
KAMH 111700Z 34009KT M02/M09 A3021 RMK A01 T10161093  RH  056%=      5-min Rain = 0
KAMH 111705Z 35009G14KT M01/M09 A3021 RMK A01 T10131092  RH  054%=      5-min Rain = 0
KAMH 111710Z 35010G16KT M01/M09 A302 RMK A01 T10061090  RH  053%=      5-min Rain = 0
KAMH 111715Z 35011KT M00/M09 A302 RMK A01 T10041090  RH  052%=      5-min Rain = 0
KAMH 111720Z 35010G15KT 00/09 A302 RMK A01 T00-00-89  RH  051%=      5-min Rain = 0
KAMH 111725Z 34011G17KT M00/M09 A302 RMK A01 T10011089  RH  051%=      5-min Rain = 0
KAMH 111730Z 34010G15KT 00/M09 A302 RMK A01 T00021088  RH  051%=      5-min Rain = 0
KAMH 111735Z 33009G15KT 00/M09 A302 RMK A01 T00021088  RH  051%=      5-min Rain = 0
KAMH 111740Z 33008G14KT 00/M09 A3019 RMK A01 T00031087  RH  050%=      5-min Rain = 0
KAMH 111745Z 35006G11KT 01/M09 A3019 RMK A01 T00061086  RH  050%=      5-min Rain = 0
KAMH 111750Z 35005G10KT 01/M08 A302 RMK A01 T00121083  RH  049%=      5-min Rain = 0
KAMH 111755Z 34005KT 01/M09 A3019 RMK A01 T00141085  RH  048%=      5-min Rain = 0
KAMH 111800Z 01008KT 02/M09 A3019 RMK A01 T00211086  RH  045%=      5-min Rain = 0
KAMH 111805Z 34007KT 02/M09 A3018 RMK A01 T00211088  RH  044%=      5-min Rain = 0
KAMH 111810Z 01008KT 02/M09 A3018 RMK A01 T00221092  RH  043%=      5-min Rain = 0
KAMH 111815Z 35011KT 03/M09 A3018 RMK A01 T00251091  RH  042%=      5-min Rain = 0
KAMH 111820Z 35011KT 03/M09 A3018 RMK A01 T00261094  RH  041%=      5-min Rain = 0
KAMH 111825Z 36008G13KT 03/M10 A3017 RMK A01 T00281095  RH  040%=      5-min Rain = 0
KAMH 111830Z 00009KT 03/M10 A3018 RMK A01 T00271099  RH  039%=      5-min Rain = 0
KAMH 111835Z 00010KT 03/M10 A3017 RMK A01 T00291100  RH  038%=      5-min Rain = 0
KAMH 111840Z 01008KT 03/M10 A3017 RMK A01 T00281101  RH  038%=      5-min Rain = 0
KAMH 111845Z 02009G14KT 03/M10 A3017 RMK A01 T00301100  RH  038%=      5-min Rain = 0
KAMH 111850Z 02009G14KT 03/M10 A3016 RMK A01 T00311100  RH  037%=      5-min Rain = 0
KAMH 111855Z 36008KT 03/M10 A3016 RMK A01 T00321101  RH  037%=      5-min Rain = 0
KAMH 111900Z 00009KT 03/M10 A3016 RMK A01 T00331104  RH  036%=      5-min Rain = 0
KAMH 111905Z 02008KT 04/M10 A3016 RMK A01 T00371104  RH  035%=      5-min Rain = 0
KAMH 111910Z 02010G16KT 04/M11 A3015 RMK A01 T00381106  RH  034%=      5-min Rain = 0
KAMH 111915Z 03008KT 04/M11 A3015 RMK A01 T00381109  RH  033%=      5-min Rain = 0
KAMH 111920Z 01007G12KT 04/M11 A3015 RMK A01 T00361107  RH  034%=      5-min Rain = 0
KAMH 111925Z 03007G12KT 04/M11 A3015 RMK A01 T00371109  RH  033%=      5-min Rain = 0
KAMH 111930Z 02007KT 04/M11 A3014 RMK A01 T00391110  RH  033%=      5-min Rain = 0
KAMH 111935Z 34007G12KT 04/M11 A3014 RMK A01 T00411109  RH  033%=      5-min Rain = 0
KAMH 111940Z 01006KT 04/M11 A3013 RMK A01 T00411108  RH  033%=      5-min Rain = 0
KAMH 111945Z 01008KT 05/M11 A3013 RMK A01 T00451109  RH  032%=      5-min Rain = 0
KAMH 111950Z 02007KT 05/M11 A3013 RMK A01 T00461108  RH  031%=      5-min Rain = 0
KAMH 111955Z 02008KT 05/M11 A3013 RMK A01 T00481110  RH  030%=      5-min Rain = 0
KAMH 112000Z 04006G11KT 05/M11 A3012 RMK A01 T00481114  RH  029%=      5-min Rain = 0
KAMH 112005Z 03007KT 05/M12 A3012 RMK A01 T00481115  RH  029%=      5-min Rain = 0
KAMH 112010Z 03005G10KT 05/M12 A3012 RMK A01 T00491115  RH  029%=      5-min Rain = 0
KAMH 112015Z 00005KT 05/M11 A3012 RMK A01 T00481114  RH  030%=      5-min Rain = 0
KAMH 112020Z 36005KT 05/M11 A3012 RMK A01 T00501114  RH  029%=      5-min Rain = 0
KAMH 112025Z 02004G9KT 05/M12 A3011 RMK A01 T00511115  RH  029%=      5-min Rain = 0
KAMH 112030Z 36006G11KT 05/M12 A3011 RMK A01 T00541116  RH  028%=      5-min Rain = 0
KAMH 112035Z 35005KT 05/M11 A3011 RMK A01 T00541114  RH  028%=      5-min Rain = 0
KAMH 112040Z 01005KT 05/M11 A3011 RMK A01 T00541113  RH  029%=      5-min Rain = 0
KAMH 112045Z 01005KT 06/M12 A3011 RMK A01 T00561115  RH  028%=      5-min Rain = 0
KAMH 112050Z 35004KT 06/M12 A3011 RMK A01 T00561116  RH  028%=      5-min Rain = 0
KAMH 112055Z 03005KT 06/M12 A3011 RMK A01 T00581120  RH  026%=      5-min Rain = 0
KAMH 112100Z 03004KT 06/M12 A3011 RMK A01 T00631122  RH  025%=      5-min Rain = 0
KAMH 112105Z 03003KT 06/M12 A3011 RMK A01 T00631123  RH  025%=      5-min Rain = 0
KAMH 112110Z 35005KT 06/M13 A3011 RMK A01 T00631125  RH  024%=      5-min Rain = 0
KAMH 112115Z 34003KT 06/M13 A3011 RMK A01 T00611126  RH  025%=      5-min Rain = 0
KAMH 112120Z 32004KT 06/M12 A3011 RMK A01 T00631124  RH  025%=      5-min Rain = 0
KAMH 112125Z 34002KT 06/M13 A3011 RMK A01 T00641125  RH  024%=      5-min Rain = 0
KAMH 112130Z 33004KT 07/M13 A3011 RMK A01 T00661125  RH  024%=      5-min Rain = 0
KAMH 112135Z 01003KT 07/M13 A3011 RMK A01 T00661126  RH  024%=      5-min Rain = 0
KAMH 112140Z 06003KT 07/M13 A3011 RMK A01 T00661128  RH  023%=      5-min Rain = 0
KAMH 112145Z 02004KT 07/M13 A3011 RMK A01 T00661131  RH  023%=      5-min Rain = 0
KAMH 112150Z 00004KT 07/M13 A3011 RMK A01 T00671131  RH  023%=      5-min Rain = 0
KAMH 112155Z 02004KT 07/M13 A3011 RMK A01 T00671132  RH  023%=      5-min Rain = 0
KAMH 112200Z 35004KT 07/M13 A3011 RMK A01 T00671131  RH  022%=      5-min Rain = 0
KAMH 112205Z 36005KT 07/M13 A3011 RMK A01 T00681131  RH  023%=      5-min Rain = 0
KAMH 112210Z 35004KT 07/M13 A3011 RMK A01 T00691131  RH  022%=      5-min Rain = 0
KAMH 112215Z 31003KT 07/M13 A3011 RMK A01 T00681132  RH  022%=      5-min Rain = 0
KAMH 112220Z 34003KT 07/M13 A3011 RMK A01 T00691133  RH  022%=      5-min Rain = 0
KAMH 112225Z 03003KT 07/M13 A3011 RMK A01 T00691133  RH  022%=      5-min Rain = 0
KAMH 112230Z 35004KT 07/M13 A3012 RMK A01 T00701132  RH  022%=      5-min Rain = 0
KAMH 112235Z 33002KT 07/M13 A3012 RMK A01 T00711132  RH  022%=      5-min Rain = 0
KAMH 112240Z 04003KT 07/M14 A3012 RMK A01 T00731136  RH  021%=      5-min Rain = 0
KAMH 112245Z 03001KT 07/M14 A3012 RMK A01 T00721139  RH  020%=      5-min Rain = 0
KAMH 112250Z 32002KT 07/M14 A3012 RMK A01 T00721139  RH  020%=      5-min Rain = 0
KAMH 112255Z 30003KT 07/M14 A3012 RMK A01 T00721140  RH  020%=      5-min Rain = 0
KAMH 112300Z 33003KT 07/M14 A3012 RMK A01 T00731140  RH  020%=      5-min Rain = 0
KAMH 112305Z 02000KT 07/M14 A3012 RMK A01 T00721139  RH  020%=      5-min Rain = 0
KAMH 112310Z 10001KT 08/M14 A3012 RMK A01 T00771137  RH  020%=      5-min Rain = 0
KAMH 112315Z 04001KT 08/M14 A3012 RMK A01 T00771139  RH  020%=      5-min Rain = 0
KAMH 112320Z 07002KT 08/M14 A3012 RMK A01 T00761141  RH  020%=      5-min Rain = 0
KAMH 112325Z 11003KT 07/M14 A3012 RMK A01 T00721144  RH  020%=      5-min Rain = 0
KAMH 112330Z 12003KT 07/M14 A3012 RMK A01 T00691143  RH  020%=      5-min Rain = 0
KAMH 112335Z 12003KT 07/M14 A3012 RMK A01 T00691142  RH  020%=      5-min Rain = 0
KAMH 112340Z 12004KT 07/M14 A3013 RMK A01 T00671141  RH  021%=      5-min Rain = 0
KAMH 112345Z 16003KT 07/M14 A3012 RMK A01 T00661141  RH  021%=      5-min Rain = 0
KAMH 112350Z 16002KT 07/M14 A3012 RMK A01 T00671141  RH  021%=      5-min Rain = 0
KAMH 112355Z 17001KT 07/M14 A3013 RMK A01 T00691140  RH  021%=      5-min Rain = 0
KAMH 120000Z 16004KT 07/M14 A3013 RMK A01 T00691144  RH  020%=      5-min Rain = 0
KAMH 120005Z 16004KT 06/M15 A3013 RMK A01 T00611146  RH  021%=      5-min Rain = 0
KAMH 120010Z 16004KT 06/M15 A3013 RMK A01 T00561146  RH  022%=      5-min Rain = 0
KAMH 120015Z 14004KT 05/M15 A3013 RMK A01 T00501147  RH  022%=      5-min Rain = 0
KAMH 120020Z 15004KT 05/M15 A3013 RMK A01 T00461148  RH  023%=      5-min Rain = 0
KAMH 120025Z 16005KT 04/M15 A3013 RMK A01 T00411148  RH  024%=      5-min Rain = 0
KAMH 120030Z 15005KT 04/M15 A3014 RMK A01 T00361150  RH  024%=      5-min Rain = 0
KAMH 120035Z 14006KT 03/M15 A3014 RMK A01 T00321150  RH  025%=      5-min Rain = 0
KAMH 120040Z 14006KT 03/M15 A3014 RMK A01 T00281152  RH  025%=      5-min Rain = 0
KAMH 120045Z 14006KT 02/M15 A3014 RMK A01 T00221154  RH  025%=      5-min Rain = 0
KAMH 120050Z 14006KT 02/M16 A3014 RMK A01 T00181156  RH  026%=      5-min Rain = 0
KAMH 120055Z 14005KT 02/M16 A3014 RMK A01 T00161156  RH  026%=      5-min Rain = 0
KAMH 120100Z 14005KT 02/M16 A3014 RMK A01 T00161156  RH  026%=      5-min Rain = 0
KAMH 120105Z 14006KT 01/M16 A3014 RMK A01 T00141159  RH  026%=      5-min Rain = 0
KAMH 120110Z 13006KT 01/M16 A3014 RMK A01 T00121158  RH  027%=      5-min Rain = 0
KAMH 120115Z 13006KT 01/M16 A3014 RMK A01 T00111160  RH  027%=      5-min Rain = 0
KAMH 120120Z 14007KT 01/M16 A3015 RMK A01 T00081159  RH  027%=      5-min Rain = 0
KAMH 120125Z 14007KT 01/M16 A3015 RMK A01 T00051161  RH  027%=      5-min Rain = 0
KAMH 120130Z 14007KT 00/M16 A3015 RMK A01 T00021159  RH  028%=      5-min Rain = 0
KAMH 120135Z 14007KT 00/M16 A3015 RMK A01 T00021160  RH  028%=      5-min Rain = 0
KAMH 120140Z 14007KT M00/M16 A3015 RMK A01 T10011161  RH  028%=      5-min Rain = 0
KAMH 120145Z 14007KT M00/M16 A3015 RMK A01 T10031161  RH  029%=      5-min Rain = 0
KAMH 120150Z 14006KT M00/M16 A3016 RMK A01 T10041161  RH  029%=      5-min Rain = 0
KAMH 120155Z 14006KT M01/M16 A3016 RMK A01 T10051163  RH  029%=      5-min Rain = 0
KAMH 120200Z 16006KT M01/M17 A3016 RMK A01 T10111165  RH  030%=      5-min Rain = 0
KAMH 120205Z 15005KT M01/M16 A3016 RMK A01 T10141163  RH  031%=      5-min Rain = 0
KAMH 120210Z 15005KT M02/M16 A3017 RMK A01 T10151163  RH  031%=      5-min Rain = 0
KAMH 120215Z 15005KT M02/M16 A3016 RMK A01 T10161163  RH  031%=      5-min Rain = 0
KAMH 120220Z 15006KT M02/M16 A3017 RMK A01 T10161162  RH  032%=      5-min Rain = 0
KAMH 120225Z 15007KT M02/M16 A3017 RMK A01 T10151161  RH  032%=      5-min Rain = 0
KAMH 120230Z 16007KT M02/M16 A3017 RMK A01 T10151158  RH  033%=      5-min Rain = 0
KAMH 120235Z 16007KT M02/M15 A3017 RMK A01 T10151151  RH  034%=      5-min Rain = 0
KAMH 120240Z 17006KT M02/M14 A3017 RMK A01 T10161144  RH  037%=      5-min Rain = 0
KAMH 120245Z 15004KT M02/M14 A3017 RMK A01 T10151141  RH  037%=      5-min Rain = 0
KAMH 120250Z 15003KT M02/M14 A3017 RMK A01 T10151140  RH  037%=      5-min Rain = 0
KAMH 120255Z 16003KT M02/M14 A3018 RMK A01 T10161140  RH  038%=      5-min Rain = 0
KAMH 120300Z 18004KT M02/M14 A3018 RMK A01 T10181139  RH  039%=      5-min Rain = 0
KAMH 120305Z 18005KT M02/M14 A3018 RMK A01 T10171135  RH  040%=      5-min Rain = 0
KAMH 120310Z 18006KT M01/M13 A3018 RMK A01 T10141134  RH  039%=      5-min Rain = 0
KAMH 120315Z 18006KT M01/M13 A3018 RMK A01 T10131134  RH  039%=      5-min Rain = 0
KAMH 120320Z 17005KT M01/M14 A3018 RMK A01 T10141139  RH  038%=      5-min Rain = 0
KAMH 120325Z 16004KT M02/M14 A3018 RMK A01 T10221141  RH  040%=      5-min Rain = 0
KAMH 120330Z 16004KT M03/M14 A3018 RMK A01 T10291139  RH  042%=      5-min Rain = 0
KAMH 120335Z 16004KT M03/M14 A3018 RMK A01 T10281135  RH  043%=      5-min Rain = 0
KAMH 120340Z 16004KT M03/M13 A3018 RMK A01 T10251133  RH  043%=      5-min Rain = 0
KAMH 120345Z 16004KT M02/M13 A3018 RMK A01 T10221134  RH  042%=      5-min Rain = 0
KAMH 120350Z 16004KT M02/M14 A3019 RMK A01 T10211136  RH  041%=      5-min Rain = 0
KAMH 120355Z 17004KT M02/M14 A3019 RMK A01 T10231138  RH  041%=      5-min Rain = 0
KAMH 120400Z 16004KT M02/M14 A3019 RMK A01 T10221135  RH  041%=      5-min Rain = 0
KAMH 120405Z 17004KT M02/M14 A3019 RMK A01 T10231137  RH  041%=      5-min Rain = 0
KAMH 120410Z 18005KT M03/M14 A3019 RMK A01 T10261136  RH  042%=      5-min Rain = 0
KAMH 120415Z 17004KT M03/M14 A3019 RMK A01 T10271136  RH  042%=      5-min Rain = 0
KAMH 120420Z 17005KT M03/M14 A3019 RMK A01 T10301139  RH  042%=      5-min Rain = 0
KAMH 120425Z 16005KT M03/M14 A3019 RMK A01 T10341140  RH  043%=      5-min Rain = 0
KAMH 120430Z 18006KT M04/M14 A3019 RMK A01 T10361136  RH  045%=      5-min Rain = 0
KAMH 120435Z 17007KT M03/M13 A3019 RMK A01 T10331132  RH  046%=      5-min Rain = 0
KAMH 120440Z 17006KT M04/M14 A3019 RMK A01 T10351135  RH  045%=      5-min Rain = 0
KAMH 120445Z 17007KT M04/M14 A3019 RMK A01 T10381136  RH  046%=      5-min Rain = 0
KAMH 120450Z 18006KT M04/M14 A3019 RMK A01 T10401137  RH  047%=      5-min Rain = 0
KAMH 120455Z 18007KT M04/M13 A3019 RMK A01 T10401133  RH  048%=      5-min Rain = 0
KAMH 120500Z 18007KT M04/M13 A302 RMK A01 T10371129  RH  049%=      5-min Rain = 0
KAMH 120505Z 19006KT M04/M13 A302 RMK A01 T10361130  RH  048%=      5-min Rain = 0
KAMH 120510Z 19006KT M04/M13 A302 RMK A01 T10351131  RH  047%=      5-min Rain = 0
KAMH 120515Z 19005KT M04/M13 A302 RMK A01 T10361132  RH  047%=      5-min Rain = 0
KAMH 120520Z 19004KT M04/M13 A3019 RMK A01 T10391134  RH  047%=      5-min Rain = 0
KAMH 120525Z 19004KT M04/M14 A3019 RMK A01 T10431139  RH  047%=      5-min Rain = 0
KAMH 120530Z 19004KT M05/M14 A3019 RMK A01 T10481142  RH  047%=      5-min Rain = 0
KAMH 120535Z 19005KT M05/M14 A3019 RMK A01 T10461136  RH  049%=      5-min Rain = 0
KAMH 120540Z 19005KT M05/M14 A302 RMK A01 T10461138  RH  048%=      5-min Rain = 0
KAMH 120545Z 18004KT M05/M14 A302 RMK A01 T10511141  RH  049%=      5-min Rain = 0
KAMH 120550Z 17005KT M06/M14 A302 RMK A01 T10561143  RH  050%=      5-min Rain = 0
KAMH 120555Z 18006KT M06/M14 A302 RMK A01 T10621142  RH  053%=      5-min Rain = 0

Page generated in 0.0088 seconds.